Time;durP1;ratioP1;P1;durP2;ratioP2;P2;SDS_P1;SDS_P2;PMS_P1;PMS_P2;Temp;Humidity;BMP_temperature;BMP_pressure;BME280_temperature;BME280_humidity;BME280_pressure;Samples;Min_cycle;Max_cycle;Signal;HPM_P1;HPM_P2
2021/04/12 00:02:22;;;;;;;1.15;0.95;;;;;;;0.34;82.92;102576.56;5022005;28;20290;-72
2021/04/12 00:04:56;;;;;;;0.90;0.90;;;;;;;0.32;83.62;102578.25;5019122;28;20057;-72
2021/04/12 00:07:30;;;;;;;0.82;0.82;;;;;;;0.29;82.33;102578.13;5022009;28;20061;-72
2021/04/12 00:10:01;;;;;;;1.05;1.05;;;;;;;0.26;82.39;102577.13;5016242;28;20058;-71
2021/04/12 00:12:34;;;;;;;1.20;1.10;;;;;;;0.26;83.07;102582.38;5022397;28;20053;-72
2021/04/12 00:15:08;;;;;;;1.10;1.10;;;;;;;0.29;83.42;102587.72;5018500;28;20061;-71
2021/04/12 00:17:40;;;;;;;1.17;1.10;;;;;;;0.31;82.86;102591.31;5019233;28;20061;-72
2021/04/12 00:20:17;;;;;;;1.10;1.10;;;;;;;0.32;82.85;102594.00;5017749;28;20069;-71
2021/04/12 00:22:51;;;;;;;1.00;1.00;;;;;;;0.32;83.11;102585.19;5019531;28;20060;-71
2021/04/12 00:25:23;;;;;;;1.20;1.15;;;;;;;0.31;83.01;102589.56;5017683;28;20072;-71
2021/04/12 00:27:55;;;;;;;1.30;1.20;;;;;;;0.28;83.55;102588.56;5022074;28;20103;-72
2021/04/12 00:30:25;;;;;;;1.00;0.77;;;;;;;0.24;83.00;102584.00;5015202;28;20169;-71
2021/04/12 00:32:56;;;;;;;1.15;1.10;;;;;;;0.21;83.15;102590.06;5021200;28;20065;-71
2021/04/12 00:35:29;;;;;;;1.00;1.00;;;;;;;0.22;83.65;102580.44;5017414;28;20242;-72
2021/04/12 00:38:06;;;;;;;1.40;1.30;;;;;;;0.15;83.51;102584.56;5020228;28;20061;-70
2021/04/12 00:40:43;;;;;;;1.00;1.00;;;;;;;0.14;83.17;102583.66;5016865;28;20053;-71
2021/04/12 00:43:16;;;;;;;1.92;1.20;;;;;;;0.12;83.66;102573.94;5015222;28;20069;-71
2021/04/12 00:46:03;;;;;;;1.08;0.98;;;;;;;0.10;83.29;102581.78;5015836;28;20076;-71
2021/04/12 00:49:01;;;;;;;1.10;1.00;;;;;;;0.02;82.55;102579.66;5016837;28;20065;-70
2021/04/12 00:51:38;;;;;;;1.00;1.00;;;;;;;0.08;84.32;102591.28;5017419;28;20160;-71
2021/04/12 00:54:31;;;;;;;1.08;1.08;;;;;;;0.03;84.05;102589.34;5015264;28;20093;-72
2021/04/12 00:57:03;;;;;;;1.73;1.20;;;;;;;0.00;84.00;102590.13;5020333;28;20065;-71
2021/04/12 00:59:42;;;;;;;1.00;1.00;;;;;;;0.01;84.24;102591.00;5013459;28;20108;-71
2021/04/12 01:02:23;;;;;;;1.27;1.23;;;;;;;0.04;85.28;102601.66;5020591;28;20065;-71
2021/04/12 01:05:02;;;;;;;1.63;1.40;;;;;;;0.12;85.86;102600.19;5014529;28;20112;-71
2021/04/12 01:07:54;;;;;;;1.70;1.25;;;;;;;0.30;85.95;102595.66;5021654;28;20058;-72
2021/04/12 01:10:49;;;;;;;0.85;0.85;;;;;;;0.61;83.70;102599.41;5017260;28;20062;-71
2021/04/12 01:13:52;;;;;;;1.42;1.10;;;;;;;0.70;84.21;102619.91;5012121;28;20057;-72
2021/04/12 01:16:31;;;;;;;2.15;1.20;;;;;;;0.79;85.26;102620.25;5020823;28;20064;-71
2021/04/12 01:19:06;;;;;;;1.08;1.08;;;;;;;0.81;85.38;102617.66;5014370;28;20149;-73
2021/04/12 01:22:09;;;;;;;0.88;0.88;;;;;;;0.77;85.65;102605.25;5020685;28;20483;-72
2021/04/12 01:25:09;;;;;;;0.98;0.80;;;;;;;0.80;85.46;102607.97;5001462;28;20344;-72
2021/04/12 01:28:27;;;;;;;1.02;1.02;;;;;;;0.79;84.34;102616.72;5021799;28;20058;-72
2021/04/12 01:31:29;;;;;;;0.90;0.90;;;;;;;0.83;84.98;102619.50;5016975;28;20056;-73
2021/04/12 01:34:29;;;;;;;0.90;0.90;;;;;;;0.81;85.53;102622.94;5021625;28;20076;-73
2021/04/12 01:37:16;;;;;;;1.13;0.90;;;;;;;0.82;85.25;102623.00;5020865;28;20146;-73
2021/04/12 01:39:54;;;;;;;0.75;0.73;;;;;;;0.85;84.99;102627.44;5013393;28;20065;-72
2021/04/12 01:42:32;;;;;;;0.90;0.90;;;;;;;0.82;85.58;102635.22;5024587;28;20465;-73
2021/04/12 01:45:15;;;;;;;0.98;0.90;;;;;;;0.83;86.49;102645.78;5015626;28;20065;-72
2021/04/12 01:47:52;;;;;;;0.90;0.90;;;;;;;0.84;86.63;102636.19;5023038;28;20394;-73
2021/04/12 01:50:28;;;;;;;1.15;1.00;;;;;;;0.83;86.76;102643.16;5015344;28;20375;-73
2021/04/12 01:53:23;;;;;;;2.95;1.17;;;;;;;0.79;86.65;102640.38;5019809;28;20053;-73
2021/04/12 01:56:21;;;;;;;1.25;1.00;;;;;;;0.80;87.18;102642.16;5016474;28;20076;-73
2021/04/12 01:59:00;;;;;;;1.50;1.10;;;;;;;0.74;86.54;102645.47;5019408;28;20148;-73
2021/04/12 02:01:53;;;;;;;1.00;1.00;;;;;;;0.71;87.42;102647.97;5020916;28;20069;-73
2021/04/12 02:04:31;;;;;;;0.98;0.98;;;;;;;0.66;87.52;102642.53;5024707;28;20069;-74
2021/04/12 02:07:13;;;;;;;1.15;1.00;;;;;;;0.63;86.61;102652.03;5025533;28;20053;-73
2021/04/12 02:09:52;;;;;;;1.20;1.15;;;;;;;0.62;87.84;102647.63;5036929;28;20064;-73
2021/04/12 02:12:40;;;;;;;1.10;1.10;;;;;;;0.56;87.13;102653.53;5024804;28;20107;-73
2021/04/12 02:15:17;;;;;;;1.25;0.90;;;;;;;0.51;87.35;102655.09;5022135;28;20061;-73
2021/04/12 02:17:55;;;;;;;1.75;1.65;;;;;;;0.48;87.90;102658.50;5024313;28;20355;-73
2021/04/12 02:20:29;;;;;;;1.20;1.10;;;;;;;0.42;88.08;102653.00;5023208;28;20050;-72
2021/04/12 02:23:03;;;;;;;;;;;;;;;0.40;88.54;102664.31;5019268;28;20057;-72
2021/04/12 02:26:02;;;;;;;0.90;0.90;;;;;;;0.37;87.85;102670.31;5023703;28;20203;-73
2021/04/12 02:28:48;;;;;;;1.10;1.10;;;;;;;0.33;88.00;102665.78;5016281;28;20057;-72
2021/04/12 02:31:30;;;;;;;1.30;1.30;;;;;;;0.34;89.12;102662.31;5021273;28;20081;-71
2021/04/12 02:34:05;;;;;;;1.10;1.10;;;;;;;0.27;88.72;102668.16;5016522;28;20068;-71
2021/04/12 02:36:44;;;;;;;1.08;1.08;;;;;;;0.25;88.37;102667.22;5020949;28;20097;-71
2021/04/12 02:39:30;;;;;;;1.13;1.02;;;;;;;0.22;88.68;102670.59;5017852;28;20088;-70
2021/04/12 02:42:10;;;;;;;0.93;0.93;;;;;;;0.20;88.52;102668.75;5025270;28;20053;-70
2021/04/12 02:44:49;;;;;;;1.00;1.00;;;;;;;0.17;88.40;102673.06;5016524;28;20061;-71
2021/04/12 02:47:37;;;;;;;1.20;1.10;;;;;;;0.16;88.47;102671.25;5024509;28;20054;-70
2021/04/12 02:50:20;;;;;;;2.38;1.40;;;;;;;0.11;88.65;102667.56;5018050;28;20151;-70
2021/04/12 02:53:02;;;;;;;1.20;1.20;;;;;;;0.08;88.82;102671.78;5027850;28;20057;-71
2021/04/12 02:55:42;;;;;;;1.50;1.20;;;;;;;0.03;88.50;102665.47;5018102;28;20444;-71
2021/04/12 02:58:32;;;;;;;1.10;1.10;;;;;;;0.04;88.59;102667.25;5020987;28;20057;-70
2021/04/12 03:01:11;;;;;;;2.00;1.38;;;;;;;-0.03;89.30;102660.88;5020621;28;20055;-71
2021/04/12 03:03:48;;;;;;;1.20;1.10;;;;;;;-0.05;89.04;102662.50;5018076;28;20208;-71
2021/04/12 03:06:45;;;;;;;1.40;1.30;;;;;;;-0.05;89.01;102671.31;5024741;28;20080;-71
2021/04/12 03:09:40;;;;;;;1.40;1.30;;;;;;;-0.10;89.30;102674.53;5016387;28;20071;-71
2021/04/12 03:12:49;;;;;;;1.30;1.20;;;;;;;-0.13;89.48;102679.69;5000910;28;20057;-70
2021/04/12 03:15:47;;;;;;;1.10;1.10;;;;;;;-0.20;89.32;102679.44;4998121;28;20232;-70
2021/04/12 03:18:32;;;;;;;1.10;1.10;;;;;;;-0.26;89.50;102681.78;5018852;28;20069;-70
2021/04/12 03:21:15;;;;;;;1.42;1.33;;;;;;;-0.28;89.46;102680.84;5019154;28;20491;-71
2021/04/12 03:23:51;;;;;;;1.30;1.20;;;;;;;-0.31;89.86;102672.81;5019434;28;20058;-71
2021/04/12 03:26:28;;;;;;;0.98;0.98;;;;;;;-0.31;90.12;102674.56;5023034;28;20061;-71
2021/04/12 03:29:06;;;;;;;1.23;1.10;;;;;;;-0.38;89.42;102670.78;5019725;28;20065;-70
2021/04/12 03:31:56;;;;;;;1.30;1.30;;;;;;;-0.40;89.70;102677.69;5020755;28;20095;-70
2021/04/12 03:34:28;;;;;;;1.40;1.30;;;;;;;-0.43;90.06;102678.44;5018388;28;20526;-71
2021/04/12 03:37:26;;;;;;;1.50;1.40;;;;;;;-0.49;90.05;102675.59;5020764;28;20064;-71
2021/04/12 03:39:57;;;;;;;1.40;1.30;;;;;;;-0.48;90.30;102685.22;5021363;28;20176;-70
2021/04/12 03:42:53;;;;;;;1.40;1.33;;;;;;;-0.51;89.91;102677.25;5018679;28;20053;-70
2021/04/12 03:45:40;;;;;;;1.40;1.30;;;;;;;-0.53;90.41;102683.25;5018933;28;20500;-72
2021/04/12 03:48:27;;;;;;;1.52;1.42;;;;;;;-0.53;90.68;102685.88;5019833;28;20261;-72
2021/04/12 03:51:08;;;;;;;1.80;1.70;;;;;;;-0.56;90.70;102689.28;5020774;28;20054;-72
2021/04/12 03:53:49;;;;;;;1.35;1.25;;;;;;;-0.60;90.08;102692.56;5017834;28;20060;-72
2021/04/12 03:56:27;;;;;;;1.60;1.50;;;;;;;-0.57;90.84;102683.09;5021687;28;20072;-72
2021/04/12 03:59:08;;;;;;;1.63;1.52;;;;;;;-0.55;91.41;102687.53;5020094;28;20065;-72
2021/04/12 04:02:10;;;;;;;1.80;1.70;;;;;;;-0.50;91.31;102691.25;5021684;28;20255;-71
2021/04/12 04:05:00;;;;;;;1.60;1.50;;;;;;;-0.51;91.13;102700.84;5020910;28;20344;-71
2021/04/12 04:07:51;;;;;;;2.00;1.88;;;;;;;-0.56;90.97;102707.63;5020869;28;20061;-72
2021/04/12 04:10:45;;;;;;;1.50;1.40;;;;;;;-0.57;89.97;102703.19;5022552;28;20053;-71
2021/04/12 04:13:28;;;;;;;1.52;1.45;;;;;;;-0.54;90.53;102702.47;5014227;28;20079;-72
2021/04/12 04:16:12;;;;;;;1.40;1.40;;;;;;;-0.53;90.50;102710.38;5022934;28;20151;-72
2021/04/12 04:18:50;;;;;;;1.88;1.77;;;;;;;-0.52;90.02;102717.41;5015973;28;20065;-72
2021/04/12 04:21:45;;;;;;;1.42;1.33;;;;;;;-0.49;90.21;102708.81;5023362;28;20362;-71
2021/04/12 04:24:45;;;;;;;1.63;1.52;;;;;;;-0.51;90.13;102713.97;5014141;28;20098;-71
2021/04/12 04:27:49;;;;;;;1.75;1.60;;;;;;;-0.45;90.55;102705.47;4986683;28;20611;-72
2021/04/12 04:30:35;;;;;;;1.30;1.30;;;;;;;-0.50;90.42;102717.47;5019065;28;20352;-71
2021/04/12 04:33:28;;;;;;;2.10;1.50;;;;;;;-0.45;90.83;102719.47;5018912;28;20160;-72
2021/04/12 04:36:06;;;;;;;4.95;2.50;;;;;;;-0.50;91.04;102718.38;5023109;28;20064;-71
2021/04/12 04:39:07;;;;;;;1.63;1.52;;;;;;;-0.56;90.23;102720.75;5015659;28;20822;-71
2021/04/12 04:41:49;;;;;;;1.80;1.70;;;;;;;-0.59;90.63;102720.59;5018603;28;20147;-72
2021/04/12 04:44:37;;;;;;;1.50;1.40;;;;;;;-0.62;90.57;102712.59;5016854;28;20068;-72
2021/04/12 04:47:38;;;;;;;1.80;1.70;;;;;;;-0.60;90.56;102724.94;5020564;28;20084;-71
2021/04/12 04:50:24;;;;;;;2.58;1.95;;;;;;;-0.61;90.75;102717.91;5018711;28;20143;-72
2021/04/12 04:53:06;;;;;;;1.70;1.60;;;;;;;-0.63;90.85;102724.81;5019858;28;20080;-72
2021/04/12 04:55:45;;;;;;;3.50;2.40;;;;;;;-0.62;90.76;102736.19;5012062;28;20308;-72
2021/04/12 04:58:18;;;;;;;2.63;2.00;;;;;;;-0.61;90.57;102733.66;5014912;28;20557;-72
2021/04/12 05:01:14;;;;;;;3.35;2.22;;;;;;;-0.56;90.97;102733.84;5018781;28;20457;-73
2021/04/12 05:04:05;;;;;;;1.65;1.50;;;;;;;-0.51;90.82;102736.66;5013298;28;20092;-72
2021/04/12 05:07:32;;;;;;;1.77;1.67;;;;;;;-0.50;91.11;102741.97;5019446;28;20061;-72
2021/04/12 05:10:24;;;;;;;1.55;1.45;;;;;;;-0.44;91.62;102749.25;5016677;28;20061;-72
2021/04/12 05:13:10;;;;;;;1.33;1.33;;;;;;;-0.39;91.56;102752.97;5018592;28;20076;-72
2021/04/12 05:15:55;;;;;;;1.65;1.55;;;;;;;-0.38;91.13;102760.88;5018361;28;20060;-72
2021/04/12 05:18:50;;;;;;;1.60;1.50;;;;;;;-0.33;90.89;102766.31;5014907;28;20069;-72
2021/04/12 05:21:50;;;;;;;2.60;1.40;;;;;;;0.47;87.06;102779.28;5019232;28;20083;-72
2021/04/12 05:24:40;;;;;;;1.77;1.40;;;;;;;0.88;84.17;102791.41;5015472;28;20065;-72
2021/04/12 05:27:35;;;;;;;2.70;1.50;;;;;;;0.91;83.88;102799.44;5012223;28;20780;-72
2021/04/12 05:30:19;;;;;;;1.02;1.02;;;;;;;0.83;83.71;102807.84;5016351;28;20144;-73
2021/04/12 05:32:52;;;;;;;1.85;1.20;;;;;;;0.72;85.16;102815.31;5013012;28;20065;-73
2021/04/12 05:35:32;;;;;;;1.55;1.20;;;;;;;0.59;86.07;102815.66;5019946;28;20072;-73
2021/04/12 05:38:18;;;;;;;1.15;1.15;;;;;;;0.37;87.31;102833.16;5012356;28;20057;-72
2021/04/12 05:41:22;;;;;;;1.40;1.30;;;;;;;0.18;88.84;102842.00;5020032;28;20060;-72
2021/04/12 05:44:06;;;;;;;1.50;1.40;;;;;;;0.13;88.93;102841.78;4995070;28;20140;-73
2021/04/12 05:47:01;;;;;;;1.25;1.20;;;;;;;0.04;89.93;102849.28;5016401;28;20136;-73
2021/04/12 05:49:45;;;;;;;1.35;1.35;;;;;;;-0.03;90.28;102844.59;5015744;28;20062;-74
2021/04/12 05:52:26;;;;;;;2.10;1.58;;;;;;;-0.13;90.46;102858.16;5014444;28;20147;-75
2021/04/12 05:55:19;;;;;;;1.27;1.27;;;;;;;-0.20;90.79;102856.97;5019647;28;20270;-73
2021/04/12 05:58:14;;;;;;;1.27;1.27;;;;;;;-0.22;91.20;102856.91;5009360;28;20065;-73
2021/04/12 06:00:53;;;;;;;1.45;1.38;;;;;;;-0.18;91.20;102862.31;5019349;28;20334;-73
2021/04/12 06:03:44;;;;;;;1.23;1.20;;;;;;;-0.23;91.45;102869.97;5013549;28;20165;-74
2021/04/12 06:06:37;;;;;;;1.30;1.20;;;;;;;-0.19;91.13;102877.13;5022146;28;20065;-73
2021/04/12 06:09:26;;;;;;;2.47;1.40;;;;;;;-0.20;91.30;102860.50;5015222;28;20073;-73
2021/04/12 06:12:19;;;;;;;1.73;1.63;;;;;;;-0.22;91.44;102851.66;5013480;28;20239;-73
2021/04/12 06:15:24;;;;;;;1.60;1.50;;;;;;;-0.35;91.86;102845.81;5016686;28;20061;-72
2021/04/12 06:18:26;;;;;;;2.58;1.52;;;;;;;-0.34;92.32;102852.81;5010814;28;20057;-72
2021/04/12 06:21:24;;;;;;;1.15;1.15;;;;;;;-0.26;92.29;102861.94;5012330;28;20131;-73
2021/04/12 06:24:19;;;;;;;1.33;1.23;;;;;;;-0.20;92.14;102860.50;5016729;28;21365;-73
2021/04/12 06:27:22;;;;;;;1.35;1.25;;;;;;;-0.14;91.98;102854.59;5016687;28;20080;-74
2021/04/12 06:29:58;;;;;;;1.35;1.30;;;;;;;-0.08;91.79;102859.25;5017113;28;20053;-74
2021/04/12 06:33:06;;;;;;;1.70;1.50;;;;;;;-0.04;92.20;102861.16;5014725;28;20156;-74
2021/04/12 06:36:11;;;;;;;1.83;1.58;;;;;;;0.08;92.04;102855.56;5016878;28;20061;-73
2021/04/12 06:38:56;;;;;;;1.70;1.60;;;;;;;0.08;91.90;102866.06;5014947;28;20082;-74
2021/04/12 06:41:56;;;;;;;1.77;1.63;;;;;;;0.17;91.58;102871.69;5016258;28;20057;-74
2021/04/12 06:45:01;;;;;;;1.50;1.40;;;;;;;0.20;91.34;102887.59;5017223;28;20522;-74
2021/04/12 06:48:04;;;;;;;1.70;1.60;;;;;;;0.26;91.50;102890.50;5012729;28;20511;-74
2021/04/12 06:50:55;;;;;;;1.75;1.40;;;;;;;0.24;91.71;102907.91;5020438;28;20061;-73
2021/04/12 06:54:16;;;;;;;2.25;1.55;;;;;;;0.21;91.58;102909.50;5018688;28;20076;-73
2021/04/12 06:57:41;;;;;;;1.50;1.45;;;;;;;-0.04;91.33;102911.94;5018245;28;20359;-73
2021/04/12 07:00:49;;;;;;;1.73;1.63;;;;;;;-0.06;91.58;102917.97;5023150;28;20058;-73
2021/04/12 07:04:05;;;;;;;1.45;1.30;;;;;;;-0.14;91.67;102911.47;5017493;28;20317;-73
2021/04/12 07:06:45;;;;;;;1.10;1.10;;;;;;;-0.08;91.21;102907.38;5018022;28;20578;-73
2021/04/12 07:09:58;;;;;;;1.10;1.10;;;;;;;-0.08;91.55;102902.13;5022389;28;20511;-73
2021/04/12 07:12:51;;;;;;;1.50;1.40;;;;;;;-0.04;91.17;102900.53;5015437;28;20072;-73
2021/04/12 07:16:00;;;;;;;1.48;1.40;;;;;;;-0.03;91.01;102907.59;5019714;28;20053;-74
2021/04/12 07:19:03;;;;;;;2.50;1.50;;;;;;;0.01;91.20;102900.75;5016261;28;20065;-72
2021/04/12 07:22:06;;;;;;;1.48;1.38;;;;;;;0.16;91.62;102901.44;5016351;28;20088;-74
2021/04/12 07:24:51;;;;;;;2.13;1.55;;;;;;;0.58;91.09;102906.72;5023376;28;20321;-73
2021/04/12 07:28:05;;;;;;;1.80;1.70;;;;;;;1.23;89.36;102898.84;5013790;28;20061;-75
2021/04/12 07:31:21;;;;;;;1.40;1.30;;;;;;;1.15;89.19;102903.78;5020978;28;20057;-75
2021/04/12 07:34:10;;;;;;;1.92;1.77;;;;;;;1.03;89.15;102912.06;4958880;28;20146;-74
2021/04/12 07:37:27;;;;;;;1.70;1.60;;;;;;;1.02;89.32;102917.25;5018359;28;20053;-76
2021/04/12 07:40:37;;;;;;;1.80;1.58;;;;;;;1.08;90.27;102928.03;5020282;28;20251;-74
2021/04/12 07:43:54;;;;;;;2.22;1.80;;;;;;;1.02;89.81;102939.22;5016388;28;20417;-74
2021/04/12 07:46:50;;;;;;;2.20;1.65;;;;;;;0.92;89.51;102944.94;5022216;28;20393;-73
2021/04/12 07:50:02;;;;;;;1.85;1.67;;;;;;;0.77;89.75;102954.78;5019082;28;20657;-73
2021/04/12 07:53:22;;;;;;;1.60;1.50;;;;;;;0.60;90.06;102948.84;5018313;28;20061;-74
2021/04/12 07:56:37;;;;;;;1.58;1.48;;;;;;;0.59;90.54;102947.03;5020309;28;20550;-74
2021/04/12 07:59:52;;;;;;;1.95;1.80;;;;;;;0.58;90.73;102950.47;5018190;28;20061;-74
2021/04/12 08:02:55;;;;;;;1.70;1.60;;;;;;;0.59;90.77;102955.81;5014881;28;20129;-75
2021/04/12 08:05:58;;;;;;;1.70;1.60;;;;;;;0.66;91.03;102946.44;5019801;28;20053;-75
2021/04/12 08:08:57;;;;;;;2.15;2.05;;;;;;;0.69;89.84;102952.72;5019650;28;20144;-75
2021/04/12 08:12:02;;;;;;;2.45;2.00;;;;;;;0.71;89.72;102968.56;5016770;28;20057;-76
2021/04/12 08:15:02;;;;;;;2.35;2.10;;;;;;;0.65;89.41;102977.09;5016476;28;20061;-77
2021/04/12 08:18:21;;;;;;;1.85;1.70;;;;;;;0.64;89.41;102977.91;5016955;28;20064;-76
2021/04/12 08:21:25;;;;;;;2.00;1.75;;;;;;;0.42;89.25;102989.22;4937196;28;20319;-75
2021/04/12 08:24:43;;;;;;;2.80;1.98;;;;;;;0.27;89.85;102999.94;4935844;29;20067;-76
2021/04/12 08:27:49;;;;;;;1.70;1.60;;;;;;;0.03;90.52;102997.09;5011847;28;20064;-78
2021/04/12 08:30:49;;;;;;;;;;;;;;;-0.13;90.69;103007.75;5017680;28;20142;-76
2021/04/12 08:34:01;;;;;;;1.35;1.25;;;;;;;-0.47;91.49;103014.91;5019206;28;19932;-77
2021/04/12 08:37:05;;;;;;;1.50;1.40;;;;;;;-0.51;92.19;103022.53;5013466;28;20680;-76
2021/04/12 08:40:13;;;;;;;1.55;1.30;;;;;;;-0.52;92.20;103028.63;5021131;28;20072;-76
2021/04/12 08:43:13;;;;;;;1.30;1.25;;;;;;;-0.51;92.28;103026.09;5014113;28;20156;-77
2021/04/12 08:46:29;;;;;;;1.30;1.30;;;;;;;-0.49;92.01;103020.91;5016074;28;20053;-77
2021/04/12 08:49:12;;;;;;;1.20;1.20;;;;;;;-0.48;92.01;103005.22;5037120;28;42267;-76
2021/04/12 08:52:17;;;;;;;1.65;1.50;;;;;;;-0.44;91.87;103012.44;5032844;28;20063;-75
2021/04/12 08:55:06;;;;;;;;;;;;;;;-0.39;91.85;103007.41;5039919;28;20238;-77
2021/04/12 08:58:14;;;;;;;1.45;1.35;;;;;;;-0.37;91.54;103005.75;5037668;28;19935;-76
2021/04/12 09:01:19;;;;;;;1.23;1.23;;;;;;;-0.27;91.66;102994.88;5035275;28;20076;-76
2021/04/12 09:04:23;;;;;;;1.27;1.20;;;;;;;-0.04;91.71;102980.16;5033173;28;20053;-77
2021/04/12 09:07:16;;;;;;;1.20;1.20;;;;;;;0.04;91.42;102982.28;5034224;28;20061;-76
2021/04/12 09:10:07;;;;;;;1.60;1.50;;;;;;;0.18;90.71;102986.41;5038506;28;20469;-77
2021/04/12 09:13:34;;;;;;;1.80;1.70;;;;;;;0.29;90.27;102986.88;5036857;28;20153;-76
2021/04/12 09:16:25;;;;;;;1.27;1.27;;;;;;;0.42;89.93;102985.72;4995055;28;20070;-76
2021/04/12 09:19:32;;;;;;;1.30;1.30;;;;;;;0.73;90.56;102970.44;5054697;28;20065;-77
2021/04/12 09:22:47;;;;;;;1.85;1.48;;;;;;;0.88;88.62;102982.44;5020391;28;20053;-77
2021/04/12 09:25:44;;;;;;;1.45;1.30;;;;;;;1.09;89.05;102990.31;5008290;28;20468;-78
2021/04/12 09:28:27;;;;;;;1.48;1.38;;;;;;;1.28;89.14;102987.59;5054026;28;20088;-77
2021/04/12 09:31:07;;;;;;;1.60;1.50;;;;;;;1.35;88.32;102990.50;5037719;28;20057;-78
2021/04/12 09:34:16;;;;;;;1.63;1.45;;;;;;;1.64;87.91;103002.16;5040617;28;20057;-76
2021/04/12 09:37:09;;;;;;;2.88;1.85;;;;;;;2.14;87.04;103005.81;5036700;28;20065;-77
2021/04/12 09:39:45;;;;;;;1.95;1.75;;;;;;;2.68;84.92;102999.00;5036170;28;20106;-76
2021/04/12 09:42:49;;;;;;;2.70;1.73;;;;;;;3.22;83.09;102996.44;5035949;28;20148;-72
2021/04/12 09:45:40;;;;;;;1.67;1.58;;;;;;;3.61;82.26;103002.91;5035823;28;20061;-72
2021/04/12 09:48:40;;;;;;;1.70;1.60;;;;;;;3.90;78.94;102993.25;5035198;28;20553;-72
2021/04/12 09:51:45;;;;;;;1.85;1.73;;;;;;;4.45;80.48;102996.59;5033380;28;20062;-72
2021/04/12 09:54:46;;;;;;;1.67;1.58;;;;;;;4.81;77.77;102986.09;5036679;28;20117;-72
2021/04/12 09:57:56;;;;;;;2.80;1.65;;;;;;;4.94;78.45;102986.41;5036957;28;20056;-73
2021/04/12 10:00:36;;;;;;;1.48;1.38;;;;;;;5.32;78.96;102992.66;5035804;28;20065;-73
2021/04/12 10:03:20;;;;;;;1.98;1.33;;;;;;;5.59;76.53;102992.41;5037454;28;20076;-73
2021/04/12 10:06:17;;;;;;;;;;;;;;;5.83;76.38;102999.13;5032917;28;20128;-72
2021/04/12 10:08:52;;;;;;;1.67;1.20;;;;;;;6.14;77.00;103003.34;5039037;28;19924;-72
2021/04/12 10:11:23;;;;;;;1.60;1.50;;;;;;;6.11;74.83;103003.31;5034282;28;20509;-73
2021/04/12 10:14:07;;;;;;;1.42;1.33;;;;;;;6.71;76.70;102995.63;5041146;28;20059;-73
2021/04/12 10:16:39;;;;;;;1.87;1.70;;;;;;;6.86;74.08;103003.88;5034108;28;20088;-73
2021/04/12 10:19:13;;;;;;;1.80;1.70;;;;;;;6.13;69.51;103000.66;5035992;28;20064;-73
2021/04/12 10:21:46;;;;;;;1.60;1.50;;;;;;;6.49;68.83;102994.34;5037049;28;20060;-74
2021/04/12 10:24:18;;;;;;;1.75;1.63;;;;;;;7.29;71.50;102983.34;5038881;28;20064;-73
2021/04/12 10:26:48;;;;;;;1.83;1.60;;;;;;;6.92;71.38;102984.50;5038986;28;20096;-73
2021/04/12 10:29:17;;;;;;;1.80;1.70;;;;;;;6.80;74.08;102986.94;5039539;28;20069;-73
2021/04/12 10:31:53;;;;;;;1.58;1.33;;;;;;;6.26;67.24;102989.44;5038235;28;20067;-72
2021/04/12 10:34:27;;;;;;;2.97;1.60;;;;;;;6.24;69.86;102992.94;5041901;28;20809;-72
2021/04/12 10:37:11;;;;;;;;;;;;;;;7.52;68.50;102979.25;5040265;28;20443;-73
2021/04/12 10:39:50;;;;;;;1.73;1.40;;;;;;;7.75;65.80;102976.94;5042067;28;19929;-77
2021/04/12 10:42:31;;;;;;;1.08;1.08;;;;;;;8.26;63.21;102980.19;5040275;28;20134;-76
2021/04/12 10:45:05;;;;;;;2.35;1.30;;;;;;;7.24;65.34;102974.41;5043105;28;20057;-74
2021/04/12 10:47:50;;;;;;;1.60;1.38;;;;;;;6.34;64.49;102984.31;5038345;28;20355;-76
2021/04/12 10:50:27;;;;;;;1.10;1.10;;;;;;;6.47;63.21;102988.06;5042598;28;20072;-77
2021/04/12 10:53:11;;;;;;;1.33;1.25;;;;;;;6.69;65.08;102992.94;5037206;28;20062;-74
2021/04/12 10:55:41;;;;;;;1.40;1.30;;;;;;;7.05;63.18;102978.53;5044536;28;20319;-76
2021/04/12 10:58:23;;;;;;;1.60;1.40;;;;;;;7.17;63.33;102984.88;5038485;28;20447;-77
2021/04/12 11:01:03;;;;;;;1.38;1.27;;;;;;;6.98;59.68;102981.03;5044827;28;20171;-76
2021/04/12 11:03:52;;;;;;;3.75;1.45;;;;;;;7.46;62.77;102978.28;5038310;28;20655;-76
2021/04/12 11:07:00;;;;;;;1.77;1.30;;;;;;;7.90;63.02;102977.13;5046244;28;20434;-74
2021/04/12 11:09:40;;;;;;;3.45;1.45;;;;;;;7.69;59.39;102977.72;5029549;28;20143;-74
2021/04/12 11:12:14;;;;;;;2.28;1.30;;;;;;;8.02;58.98;102979.94;5042986;28;20136;-76
2021/04/12 11:14:50;;;;;;;2.22;1.63;;;;;;;8.08;56.66;102976.47;5042527;28;20242;-74
2021/04/12 11:17:28;;;;;;;1.45;1.20;;;;;;;8.16;55.75;102981.88;5040088;28;20157;-74
2021/04/12 11:20:05;;;;;;;2.03;1.35;;;;;;;8.74;55.61;102982.53;5040070;28;20072;-74
2021/04/12 11:22:48;;;;;;;1.10;1.10;;;;;;;7.21;53.57;102989.41;5040115;28;20060;-73
2021/04/12 11:25:22;;;;;;;1.80;1.23;;;;;;;7.53;54.70;102992.56;5036750;28;20314;-74
2021/04/12 11:27:58;;;;;;;0.85;0.85;;;;;;;7.95;52.78;102986.06;5039814;28;20065;-73
2021/04/12 11:30:29;;;;;;;1.35;1.20;;;;;;;8.03;51.15;102988.81;5039526;28;20148;-73
2021/04/12 11:33:09;;;;;;;2.15;1.63;;;;;;;8.02;55.34;102989.69;5041777;28;20103;-73
2021/04/12 11:35:47;;;;;;;1.63;1.33;;;;;;;7.29;53.55;102996.63;5036859;28;20092;-74
2021/04/12 11:38:17;;;;;;;2.05;1.42;;;;;;;7.39;54.17;102997.66;5043956;28;20060;-73
2021/04/12 11:40:52;;;;;;;2.55;1.50;;;;;;;7.88;53.48;102988.59;5038320;28;20080;-74
2021/04/12 11:43:26;;;;;;;1.95;1.52;;;;;;;7.40;51.42;102994.13;5040193;28;20061;-73
2021/04/12 11:45:59;;;;;;;2.05;1.40;;;;;;;7.71;52.23;102989.25;5036114;28;20108;-73
2021/04/12 11:48:33;;;;;;;1.60;1.48;;;;;;;8.48;52.88;102992.94;5040581;28;20057;-73
2021/04/12 11:51:06;;;;;;;2.00;1.30;;;;;;;8.22;52.78;103005.88;5036167;28;20061;-71
2021/04/12 11:53:44;;;;;;;1.67;1.38;;;;;;;7.93;49.67;103008.16;5040902;28;20485;-70
2021/04/12 11:56:28;;;;;;;2.00;1.13;;;;;;;7.80;48.62;103000.03;5037006;28;20064;-71
2021/04/12 11:59:02;;;;;;;1.58;1.40;;;;;;;7.85;52.44;103008.06;5041534;28;20061;-70
2021/04/12 12:01:43;;;;;;;1.92;1.60;;;;;;;8.21;52.19;103006.78;5038644;28;20056;-69
2021/04/12 12:04:17;;;;;;;2.15;1.50;;;;;;;7.75;53.19;102999.06;5038700;28;20156;-70
2021/04/12 12:07:01;;;;;;;1.92;1.42;;;;;;;8.52;52.95;102999.16;5039689;28;20061;-69
2021/04/12 12:09:49;;;;;;;1.55;1.45;;;;;;;9.07;50.91;102997.03;5038930;28;20065;-70
2021/04/12 12:12:36;;;;;;;1.95;1.52;;;;;;;8.83;51.12;102989.72;5034940;28;20063;-71
2021/04/12 12:15:14;;;;;;;1.40;1.30;;;;;;;8.18;52.02;103015.59;5038777;28;20317;-69
2021/04/12 12:17:45;;;;;;;3.70;1.38;;;;;;;7.69;52.65;103017.56;5039686;28;20061;-69
2021/04/12 12:20:19;;;;;;;2.28;1.30;;;;;;;8.18;51.66;103025.34;5037310;28;20067;-69
2021/04/12 12:22:56;;;;;;;3.50;1.65;;;;;;;7.48;53.33;103021.69;5036655;28;20064;-69
2021/04/12 12:25:37;;;;;;;2.58;1.67;;;;;;;7.86;54.05;103033.75;5040762;28;20143;-71
2021/04/12 12:28:16;;;;;;;2.53;1.80;;;;;;;7.72;48.83;103033.56;5034919;28;20087;-71
2021/04/12 12:30:52;;;;;;;2.20;1.50;;;;;;;7.06;51.85;103033.38;5039658;28;20057;-71
2021/04/12 12:33:26;;;;;;;2.17;1.70;;;;;;;7.16;54.50;103046.84;5036420;28;20143;-71
2021/04/12 12:36:06;;;;;;;3.85;1.83;;;;;;;6.79;56.03;103049.72;5039457;28;20392;-71
2021/04/12 12:38:46;;;;;;;2.15;1.95;;;;;;;7.38;54.39;103051.66;5039028;28;20099;-69
2021/04/12 12:41:16;;;;;;;1.92;1.55;;;;;;;7.54;49.97;103038.59;5040126;28;20313;-71
2021/04/12 12:43:45;;;;;;;2.20;2.00;;;;;;;7.76;51.98;103047.78;5036432;28;20073;-70
2021/04/12 12:46:15;;;;;;;1.70;1.60;;;;;;;7.36;51.58;103047.19;5038985;28;20100;-70
2021/04/12 12:48:48;;;;;;;2.60;2.10;;;;;;;7.83;54.21;103052.31;5032558;28;20072;-69
2021/04/12 12:51:18;;;;;;;2.95;1.80;;;;;;;8.03;51.69;103057.94;5041135;28;20088;-70
2021/04/12 12:53:50;;;;;;;3.20;1.67;;;;;;;8.36;52.16;103057.50;5037021;28;20502;-70
2021/04/12 12:56:23;;;;;;;2.15;1.70;;;;;;;8.77;50.04;103062.44;5038727;28;20247;-70
2021/04/12 12:58:58;;;;;;;2.13;1.80;;;;;;;8.01;51.78;103065.00;5040407;28;20505;-70
2021/04/12 13:01:28;;;;;;;2.53;1.80;;;;;;;7.53;50.45;103055.44;5040017;28;20079;-70
2021/04/12 13:04:07;;;;;;;3.22;2.00;;;;;;;7.71;48.34;103062.78;5039864;28;20084;-70
2021/04/12 13:06:35;;;;;;;2.05;1.52;;;;;;;8.49;49.60;103071.84;5041234;28;20077;-71
2021/04/12 13:09:13;;;;;;;1.75;1.58;;;;;;;7.54;45.01;103065.16;5035064;28;20114;-69